sensor_id;sensor_type;location;lat;lon;timestamp;temperature;humidity
23073;DHT22;34865;51.046;3.732;2022-09-13T00:01:48;22.20;99.90
23073;DHT22;34865;51.046;3.732;2022-09-13T00:04:14;22.10;99.90
23073;DHT22;34865;51.046;3.732;2022-09-13T00:06:39;22.20;99.90
23073;DHT22;34865;51.046;3.732;2022-09-13T00:09:05;22.20;99.90
23073;DHT22;34865;51.046;3.732;2022-09-13T00:11:32;22.10;99.90
23073;DHT22;34865;51.046;3.732;2022-09-13T00:14:01;22.10;99.90
23073;DHT22;34865;51.046;3.732;2022-09-13T00:16:28;22.20;99.90
23073;DHT22;34865;51.046;3.732;2022-09-13T00:18:54;22.30;99.90
23073;DHT22;34865;51.046;3.732;2022-09-13T00:21:22;22.30;99.90
23073;DHT22;34865;51.046;3.732;2022-09-13T00:23:51;22.10;99.90
23073;DHT22;34865;51.046;3.732;2022-09-13T00:26:25;22.00;99.90
23073;DHT22;34865;51.046;3.732;2022-09-13T00:28:57;22.00;99.90
23073;DHT22;34865;51.046;3.732;2022-09-13T00:31:31;22.00;99.90
23073;DHT22;34865;51.046;3.732;2022-09-13T00:34:03;22.00;99.90
23073;DHT22;34865;51.046;3.732;2022-09-13T00:36:31;22.00;99.90
23073;DHT22;34865;51.046;3.732;2022-09-13T00:39:02;22.00;99.90
23073;DHT22;34865;51.046;3.732;2022-09-13T00:41:36;22.10;99.90
23073;DHT22;34865;51.046;3.732;2022-09-13T00:47:50;22.00;99.90
23073;DHT22;34865;51.046;3.732;2022-09-13T00:50:35;22.00;99.90
23073;DHT22;34865;51.046;3.732;2022-09-13T00:53:18;21.90;99.90
23073;DHT22;34865;51.046;3.732;2022-09-13T00:56:06;21.70;99.90
23073;DHT22;34865;51.046;3.732;2022-09-13T00:58:45;21.60;99.90
23073;DHT22;34865;51.046;3.732;2022-09-13T01:01:15;21.60;99.90
23073;DHT22;34865;51.046;3.732;2022-09-13T01:03:47;21.50;99.90
23073;DHT22;34865;51.046;3.732;2022-09-13T01:06:21;21.50;99.90
23073;DHT22;34865;51.046;3.732;2022-09-13T01:08:51;21.50;99.90
23073;DHT22;34865;51.046;3.732;2022-09-13T01:11:41;21.50;99.90
23073;DHT22;34865;51.046;3.732;2022-09-13T01:14:12;21.60;99.90
23073;DHT22;34865;51.046;3.732;2022-09-13T01:16:44;21.80;99.90
23073;DHT22;34865;51.046;3.732;2022-09-13T01:19:10;21.90;99.90
23073;DHT22;34865;51.046;3.732;2022-09-13T01:30:15;21.30;99.90
23073;DHT22;34865;51.046;3.732;2022-09-13T01:36:04;21.10;99.90
23073;DHT22;34865;51.046;3.732;2022-09-13T01:38:49;21.40;99.90
23073;DHT22;34865;51.046;3.732;2022-09-13T01:44:37;21.40;99.90
23073;DHT22;34865;51.046;3.732;2022-09-13T01:47:31;21.30;99.90
23073;DHT22;34865;51.046;3.732;2022-09-13T01:58:14;21.40;99.90
23073;DHT22;34865;51.046;3.732;2022-09-13T02:00:46;21.40;99.90
23073;DHT22;34865;51.046;3.732;2022-09-13T02:03:30;21.30;99.90
23073;DHT22;34865;51.046;3.732;2022-09-13T02:06:08;21.20;99.90
23073;DHT22;34865;51.046;3.732;2022-09-13T02:08:48;21.30;99.90
23073;DHT22;34865;51.046;3.732;2022-09-13T02:11:17;21.40;99.90
23073;DHT22;34865;51.046;3.732;2022-09-13T02:13:55;21.40;99.90
23073;DHT22;34865;51.046;3.732;2022-09-13T02:16:29;21.50;99.90
23073;DHT22;34865;51.046;3.732;2022-09-13T02:19:04;21.50;99.90
23073;DHT22;34865;51.046;3.732;2022-09-13T02:21:36;21.60;99.90
23073;DHT22;34865;51.046;3.732;2022-09-13T02:24:35;21.70;99.90
23073;DHT22;34865;51.046;3.732;2022-09-13T02:27:11;21.70;99.90
23073;DHT22;34865;51.046;3.732;2022-09-13T02:29:39;21.70;99.90
23073;DHT22;34865;51.046;3.732;2022-09-13T02:32:19;21.60;99.90
23073;DHT22;34865;51.046;3.732;2022-09-13T02:34:52;21.40;99.90
23073;DHT22;34865;51.046;3.732;2022-09-13T02:37:23;21.30;99.90
23073;DHT22;34865;51.046;3.732;2022-09-13T02:39:56;21.40;99.90
23073;DHT22;34865;51.046;3.732;2022-09-13T02:42:37;21.40;99.90
23073;DHT22;34865;51.046;3.732;2022-09-13T02:45:12;21.40;99.90
23073;DHT22;34865;51.046;3.732;2022-09-13T02:47:55;21.50;99.90
23073;DHT22;34865;51.046;3.732;2022-09-13T02:50:27;21.40;99.90
23073;DHT22;34865;51.046;3.732;2022-09-13T02:53:38;21.30;99.90
23073;DHT22;34865;51.046;3.732;2022-09-13T02:59:04;21.50;99.90
23073;DHT22;34865;51.046;3.732;2022-09-13T03:01:42;21.50;99.90
23073;DHT22;34865;51.046;3.732;2022-09-13T03:04:13;21.50;99.90
23073;DHT22;34865;51.046;3.732;2022-09-13T03:06:42;21.40;99.90
23073;DHT22;34865;51.046;3.732;2022-09-13T03:09:11;21.30;99.90
23073;DHT22;34865;51.046;3.732;2022-09-13T03:14:53;21.00;99.90
23073;DHT22;34865;51.046;3.732;2022-09-13T03:17:31;21.10;99.90
23073;DHT22;34865;51.046;3.732;2022-09-13T03:26:22;21.30;99.90
23073;DHT22;34865;51.046;3.732;2022-09-13T03:29:20;21.30;99.90
23073;DHT22;34865;51.046;3.732;2022-09-13T03:34:42;21.60;99.90
23073;DHT22;34865;51.046;3.732;2022-09-13T03:37:27;21.30;99.90
23073;DHT22;34865;51.046;3.732;2022-09-13T03:40:15;21.10;99.90
23073;DHT22;34865;51.046;3.732;2022-09-13T03:42:59;20.90;99.90
23073;DHT22;34865;51.046;3.732;2022-09-13T03:45:33;20.80;99.90
23073;DHT22;34865;51.046;3.732;2022-09-13T03:48:04;20.90;99.90
23073;DHT22;34865;51.046;3.732;2022-09-13T03:50:40;21.00;99.90
23073;DHT22;34865;51.046;3.732;2022-09-13T03:53:10;21.10;99.90
23073;DHT22;34865;51.046;3.732;2022-09-13T03:55:41;21.00;99.90
23073;DHT22;34865;51.046;3.732;2022-09-13T03:58:15;20.90;99.90
23073;DHT22;34865;51.046;3.732;2022-09-13T04:00:48;20.90;99.90
23073;DHT22;34865;51.046;3.732;2022-09-13T04:03:19;20.80;99.90
23073;DHT22;34865;51.046;3.732;2022-09-13T04:05:47;20.80;99.90
23073;DHT22;34865;51.046;3.732;2022-09-13T04:08:14;20.70;99.90
23073;DHT22;34865;51.046;3.732;2022-09-13T04:10:42;20.70;99.90
23073;DHT22;34865;51.046;3.732;2022-09-13T04:13:08;20.70;99.90
23073;DHT22;34865;51.046;3.732;2022-09-13T04:15:35;20.80;99.90
23073;DHT22;34865;51.046;3.732;2022-09-13T04:18:04;21.00;99.90
23073;DHT22;34865;51.046;3.732;2022-09-13T04:20:40;20.90;99.90
23073;DHT22;34865;51.046;3.732;2022-09-13T04:23:16;21.00;99.90
23073;DHT22;34865;51.046;3.732;2022-09-13T04:25:59;21.20;99.90
23073;DHT22;34865;51.046;3.732;2022-09-13T04:28:30;21.30;99.90
23073;DHT22;34865;51.046;3.732;2022-09-13T04:31:05;21.30;99.90
23073;DHT22;34865;51.046;3.732;2022-09-13T04:33:35;21.20;99.90
23073;DHT22;34865;51.046;3.732;2022-09-13T04:36:01;21.10;99.90
23073;DHT22;34865;51.046;3.732;2022-09-13T04:38:27;21.10;99.90
23073;DHT22;34865;51.046;3.732;2022-09-13T04:40:55;21.00;99.90
23073;DHT22;34865;51.046;3.732;2022-09-13T04:43:24;20.90;99.90
23073;DHT22;34865;51.046;3.732;2022-09-13T04:45:50;20.80;99.90
23073;DHT22;34865;51.046;3.732;2022-09-13T04:48:19;20.70;99.90
23073;DHT22;34865;51.046;3.732;2022-09-13T04:50:45;20.80;99.90
23073;DHT22;34865;51.046;3.732;2022-09-13T04:53:12;20.80;99.90
23073;DHT22;34865;51.046;3.732;2022-09-13T04:55:42;21.00;99.90
23073;DHT22;34865;51.046;3.732;2022-09-13T04:58:10;20.90;99.90
23073;DHT22;34865;51.046;3.732;2022-09-13T05:00:36;20.70;99.90
23073;DHT22;34865;51.046;3.732;2022-09-13T05:03:05;20.60;99.90
23073;DHT22;34865;51.046;3.732;2022-09-13T05:05:31;20.60;99.90
23073;DHT22;34865;51.046;3.732;2022-09-13T05:07:59;20.70;99.90
23073;DHT22;34865;51.046;3.732;2022-09-13T05:10:25;20.80;99.90
23073;DHT22;34865;51.046;3.732;2022-09-13T05:12:54;20.60;99.90
23073;DHT22;34865;51.046;3.732;2022-09-13T05:15:23;20.50;99.90
23073;DHT22;34865;51.046;3.732;2022-09-13T05:17:52;20.60;99.90
23073;DHT22;34865;51.046;3.732;2022-09-13T05:20:17;20.60;99.90
23073;DHT22;34865;51.046;3.732;2022-09-13T05:22:43;20.50;99.90
23073;DHT22;34865;51.046;3.732;2022-09-13T05:25:12;20.50;99.90
23073;DHT22;34865;51.046;3.732;2022-09-13T05:27:38;20.60;99.90
23073;DHT22;34865;51.046;3.732;2022-09-13T05:30:06;20.50;99.90
23073;DHT22;34865;51.046;3.732;2022-09-13T05:32:32;20.50;99.90
23073;DHT22;34865;51.046;3.732;2022-09-13T05:34:58;20.70;99.90
23073;DHT22;34865;51.046;3.732;2022-09-13T05:37:24;20.60;99.90
23073;DHT22;34865;51.046;3.732;2022-09-13T05:39:50;20.50;99.90
23073;DHT22;34865;51.046;3.732;2022-09-13T05:42:20;20.40;99.90
23073;DHT22;34865;51.046;3.732;2022-09-13T05:44:46;20.50;99.90
23073;DHT22;34865;51.046;3.732;2022-09-13T05:47:20;20.60;99.90
23073;DHT22;34865;51.046;3.732;2022-09-13T05:49:48;20.70;99.90
23073;DHT22;34865;51.046;3.732;2022-09-13T05:52:20;20.70;99.90
23073;DHT22;34865;51.046;3.732;2022-09-13T05:54:48;20.60;99.90
23073;DHT22;34865;51.046;3.732;2022-09-13T05:57:16;20.50;99.90
23073;DHT22;34865;51.046;3.732;2022-09-13T05:59:42;20.40;99.90
23073;DHT22;34865;51.046;3.732;2022-09-13T06:02:12;20.40;99.90
23073;DHT22;34865;51.046;3.732;2022-09-13T06:04:41;20.60;99.90
23073;DHT22;34865;51.046;3.732;2022-09-13T06:07:12;20.70;99.90
23073;DHT22;34865;51.046;3.732;2022-09-13T06:09:38;20.80;99.90
23073;DHT22;34865;51.046;3.732;2022-09-13T06:12:04;20.70;99.90
23073;DHT22;34865;51.046;3.732;2022-09-13T06:14:30;20.60;99.90
23073;DHT22;34865;51.046;3.732;2022-09-13T06:16:56;20.60;99.90
23073;DHT22;34865;51.046;3.732;2022-09-13T06:19:21;20.60;99.90
23073;DHT22;34865;51.046;3.732;2022-09-13T06:21:47;20.70;99.90
23073;DHT22;34865;51.046;3.732;2022-09-13T06:24:13;20.70;99.90
23073;DHT22;34865;51.046;3.732;2022-09-13T06:26:39;20.70;99.90
23073;DHT22;34865;51.046;3.732;2022-09-13T06:29:04;20.80;99.90
23073;DHT22;34865;51.046;3.732;2022-09-13T06:31:30;20.90;99.90
23073;DHT22;34865;51.046;3.732;2022-09-13T06:33:57;21.00;99.90
23073;DHT22;34865;51.046;3.732;2022-09-13T06:36:24;21.00;99.90
23073;DHT22;34865;51.046;3.732;2022-09-13T06:38:49;21.20;99.90
23073;DHT22;34865;51.046;3.732;2022-09-13T06:41:18;21.30;99.90
23073;DHT22;34865;51.046;3.732;2022-09-13T06:43:45;21.40;99.90
23073;DHT22;34865;51.046;3.732;2022-09-13T06:46:14;21.40;99.90
23073;DHT22;34865;51.046;3.732;2022-09-13T06:48:42;21.60;99.90
23073;DHT22;34865;51.046;3.732;2022-09-13T06:51:17;21.70;99.90
23073;DHT22;34865;51.046;3.732;2022-09-13T06:53:44;21.90;99.90
23073;DHT22;34865;51.046;3.732;2022-09-13T06:56:15;22.10;99.90
23073;DHT22;34865;51.046;3.732;2022-09-13T06:58:43;22.10;99.90
23073;DHT22;34865;51.046;3.732;2022-09-13T07:01:18;22.20;99.90
23073;DHT22;34865;51.046;3.732;2022-09-13T07:03:47;22.50;99.90
23073;DHT22;34865;51.046;3.732;2022-09-13T07:06:18;22.70;99.90
23073;DHT22;34865;51.046;3.732;2022-09-13T07:08:45;22.80;99.90
23073;DHT22;34865;51.046;3.732;2022-09-13T07:11:13;23.00;99.90
23073;DHT22;34865;51.046;3.732;2022-09-13T07:13:39;23.10;99.90
23073;DHT22;34865;51.046;3.732;2022-09-13T07:16:10;23.20;99.90
23073;DHT22;34865;51.046;3.732;2022-09-13T07:18:36;23.40;99.90
23073;DHT22;34865;51.046;3.732;2022-09-13T07:21:04;23.60;99.90
23073;DHT22;34865;51.046;3.732;2022-09-13T07:23:34;23.70;99.90
23073;DHT22;34865;51.046;3.732;2022-09-13T07:26:00;23.80;99.90
23073;DHT22;34865;51.046;3.732;2022-09-13T07:28:35;23.90;99.90
23073;DHT22;34865;51.046;3.732;2022-09-13T07:31:10;23.90;99.90
23073;DHT22;34865;51.046;3.732;2022-09-13T07:33:37;24.00;99.90
23073;DHT22;34865;51.046;3.732;2022-09-13T07:36:04;24.10;99.90
23073;DHT22;34865;51.046;3.732;2022-09-13T07:38:32;24.30;99.90
23073;DHT22;34865;51.046;3.732;2022-09-13T07:40:58;24.40;99.90
23073;DHT22;34865;51.046;3.732;2022-09-13T07:43:24;24.60;99.90
23073;DHT22;34865;51.046;3.732;2022-09-13T07:46:18;24.80;99.90
23073;DHT22;34865;51.046;3.732;2022-09-13T07:48:44;24.90;99.90
23073;DHT22;34865;51.046;3.732;2022-09-13T07:51:13;25.20;99.90
23073;DHT22;34865;51.046;3.732;2022-09-13T07:53:41;25.50;99.90
23073;DHT22;34865;51.046;3.732;2022-09-13T07:56:09;25.80;99.90
23073;DHT22;34865;51.046;3.732;2022-09-13T07:58:36;25.90;99.90
23073;DHT22;34865;51.046;3.732;2022-09-13T08:03:36;28.90;99.90
23073;DHT22;34865;51.046;3.732;2022-09-13T08:06:03;28.60;99.90
23073;DHT22;34865;51.046;3.732;2022-09-13T08:08:29;28.20;99.90
23073;DHT22;34865;51.046;3.732;2022-09-13T08:10:55;27.70;99.90
23073;DHT22;34865;51.046;3.732;2022-09-13T08:13:22;27.70;99.90
23073;DHT22;34865;51.046;3.732;2022-09-13T08:15:47;27.40;99.90
23073;DHT22;34865;51.046;3.732;2022-09-13T08:18:15;27.50;99.90
23073;DHT22;34865;51.046;3.732;2022-09-13T08:20:40;28.40;99.90
23073;DHT22;34865;51.046;3.732;2022-09-13T08:23:08;27.70;99.90
23073;DHT22;34865;51.046;3.732;2022-09-13T08:25:35;27.90;99.90
23073;DHT22;34865;51.046;3.732;2022-09-13T08:28:08;27.40;99.90
23073;DHT22;34865;51.046;3.732;2022-09-13T08:30:35;27.50;99.90
23073;DHT22;34865;51.046;3.732;2022-09-13T08:33:04;28.20;99.90
23073;DHT22;34865;51.046;3.732;2022-09-13T08:35:31;29.40;99.90
23073;DHT22;34865;51.046;3.732;2022-09-13T08:37:57;29.70;99.90
23073;DHT22;34865;51.046;3.732;2022-09-13T08:40:25;29.30;99.90
23073;DHT22;34865;51.046;3.732;2022-09-13T08:43:21;28.60;99.90
23073;DHT22;34865;51.046;3.732;2022-09-13T08:48:31;26.60;99.90
23073;DHT22;34865;51.046;3.732;2022-09-13T08:51:03;26.60;99.90
23073;DHT22;34865;51.046;3.732;2022-09-13T08:53:30;26.70;99.90
23073;DHT22;34865;51.046;3.732;2022-09-13T08:56:06;26.80;99.90
23073;DHT22;34865;51.046;3.732;2022-09-13T08:58:43;26.60;99.90
23073;DHT22;34865;51.046;3.732;2022-09-13T09:06:19;25.80;99.90
23073;DHT22;34865;51.046;3.732;2022-09-13T09:09:05;25.80;99.90
23073;DHT22;34865;51.046;3.732;2022-09-13T09:11:51;26.00;99.90
23073;DHT22;34865;51.046;3.732;2022-09-13T09:14:30;26.80;99.90
23073;DHT22;34865;51.046;3.732;2022-09-13T09:17:03;27.20;99.90
23073;DHT22;34865;51.046;3.732;2022-09-13T09:19:36;26.80;99.90
23073;DHT22;34865;51.046;3.732;2022-09-13T09:22:08;27.00;99.90
23073;DHT22;34865;51.046;3.732;2022-09-13T09:24:36;27.00;99.90
23073;DHT22;34865;51.046;3.732;2022-09-13T09:27:14;27.30;99.90
23073;DHT22;34865;51.046;3.732;2022-09-13T09:29:41;27.00;99.90
23073;DHT22;34865;51.046;3.732;2022-09-13T09:32:31;26.10;99.90
23073;DHT22;34865;51.046;3.732;2022-09-13T09:35:25;25.70;99.90
23073;DHT22;34865;51.046;3.732;2022-09-13T09:40:53;26.90;99.90
23073;DHT22;34865;51.046;3.732;2022-09-13T09:43:24;27.50;99.90
23073;DHT22;34865;51.046;3.732;2022-09-13T09:45:53;27.90;99.90
23073;DHT22;34865;51.046;3.732;2022-09-13T09:48:25;28.60;99.90
23073;DHT22;34865;51.046;3.732;2022-09-13T09:50:55;28.20;99.90
23073;DHT22;34865;51.046;3.732;2022-09-13T09:53:28;27.20;99.90
23073;DHT22;34865;51.046;3.732;2022-09-13T09:56:03;27.30;99.90
23073;DHT22;34865;51.046;3.732;2022-09-13T09:58:39;27.10;99.90
23073;DHT22;34865;51.046;3.732;2022-09-13T10:01:08;27.10;99.90
23073;DHT22;34865;51.046;3.732;2022-09-13T10:03:40;27.40;99.90
23073;DHT22;34865;51.046;3.732;2022-09-13T10:06:13;27.30;99.90
23073;DHT22;34865;51.046;3.732;2022-09-13T10:09:03;27.50;99.90
23073;DHT22;34865;51.046;3.732;2022-09-13T10:11:53;27.30;99.90
23073;DHT22;34865;51.046;3.732;2022-09-13T10:14:42;27.50;99.90
23073;DHT22;34865;51.046;3.732;2022-09-13T10:17:25;27.70;99.90
23073;DHT22;34865;51.046;3.732;2022-09-13T10:19:59;27.60;99.90
23073;DHT22;34865;51.046;3.732;2022-09-13T10:22:27;27.40;99.90
23073;DHT22;34865;51.046;3.732;2022-09-13T10:24:54;27.80;99.90
23073;DHT22;34865;51.046;3.732;2022-09-13T10:27:21;28.00;99.90
23073;DHT22;34865;51.046;3.732;2022-09-13T10:29:51;27.90;99.90
23073;DHT22;34865;51.046;3.732;2022-09-13T10:32:20;27.90;99.90
23073;DHT22;34865;51.046;3.732;2022-09-13T10:34:47;27.60;99.90
23073;DHT22;34865;51.046;3.732;2022-09-13T10:37:18;27.20;99.90
23073;DHT22;34865;51.046;3.732;2022-09-13T10:39:52;27.40;99.90
23073;DHT22;34865;51.046;3.732;2022-09-13T10:42:22;27.50;99.90
23073;DHT22;34865;51.046;3.732;2022-09-13T10:44:55;27.60;99.90
23073;DHT22;34865;51.046;3.732;2022-09-13T10:47:42;27.40;99.90
23073;DHT22;34865;51.046;3.732;2022-09-13T10:55:35;28.20;99.90
23073;DHT22;34865;51.046;3.732;2022-09-13T11:01:06;28.50;99.90
23073;DHT22;34865;51.046;3.732;2022-09-13T11:06:38;27.80;99.90
23073;DHT22;34865;51.046;3.732;2022-09-13T11:12:20;27.40;99.90
23073;DHT22;34865;51.046;3.732;2022-09-13T11:20:11;27.40;99.90
23073;DHT22;34865;51.046;3.732;2022-09-13T11:28:32;27.40;99.90
23073;DHT22;34865;51.046;3.732;2022-09-13T11:31:13;26.80;99.90
23073;DHT22;34865;51.046;3.732;2022-09-13T11:44:51;27.60;99.90
23073;DHT22;34865;51.046;3.732;2022-09-13T11:56:32;27.30;99.90
23073;DHT22;34865;51.046;3.732;2022-09-13T11:59:25;27.40;99.90
23073;DHT22;34865;51.046;3.732;2022-09-13T12:01:57;27.30;99.90
23073;DHT22;34865;51.046;3.732;2022-09-13T12:04:34;27.30;99.90
23073;DHT22;34865;51.046;3.732;2022-09-13T12:07:09;26.90;99.90
23073;DHT22;34865;51.046;3.732;2022-09-13T12:09:42;26.60;99.90
23073;DHT22;34865;51.046;3.732;2022-09-13T12:12:12;26.50;99.90
23073;DHT22;34865;51.046;3.732;2022-09-13T12:14:42;26.50;99.90
23073;DHT22;34865;51.046;3.732;2022-09-13T12:17:32;26.40;99.90
23073;DHT22;34865;51.046;3.732;2022-09-13T12:19:59;26.10;99.90
23073;DHT22;34865;51.046;3.732;2022-09-13T12:22:28;25.80;99.90
23073;DHT22;34865;51.046;3.732;2022-09-13T12:24:58;25.30;99.90
23073;DHT22;34865;51.046;3.732;2022-09-13T12:27:41;25.00;99.90
23073;DHT22;34865;51.046;3.732;2022-09-13T12:30:16;24.80;99.90
23073;DHT22;34865;51.046;3.732;2022-09-13T12:32:44;24.60;99.90
23073;DHT22;34865;51.046;3.732;2022-09-13T12:35:35;24.30;99.90
23073;DHT22;34865;51.046;3.732;2022-09-13T12:49:50;23.80;99.90
23073;DHT22;34865;51.046;3.732;2022-09-13T12:52:27;23.60;99.90
23073;DHT22;34865;51.046;3.732;2022-09-13T12:57:52;23.40;99.90
23073;DHT22;34865;51.046;3.732;2022-09-13T13:00:34;23.40;99.90
23073;DHT22;34865;51.046;3.732;2022-09-13T13:05:36;23.40;99.90
23073;DHT22;34865;51.046;3.732;2022-09-13T13:08:06;23.50;99.90
23073;DHT22;34865;51.046;3.732;2022-09-13T13:10:41;23.70;99.90
23073;DHT22;34865;51.046;3.732;2022-09-13T13:36:29;23.20;99.90
23073;DHT22;34865;51.046;3.732;2022-09-13T13:39:00;23.20;99.90
23073;DHT22;34865;51.046;3.732;2022-09-13T13:43:59;23.20;99.90
23073;DHT22;34865;51.046;3.732;2022-09-13T13:46:28;23.20;99.90
23073;DHT22;34865;51.046;3.732;2022-09-13T13:48:55;23.20;99.90
23073;DHT22;34865;51.046;3.732;2022-09-13T13:51:23;23.00;99.90
23073;DHT22;34865;51.046;3.732;2022-09-13T13:53:56;22.70;99.90
23073;DHT22;34865;51.046;3.732;2022-09-13T13:56:24;22.60;99.90
23073;DHT22;34865;51.046;3.732;2022-09-13T13:58:58;22.50;99.90
23073;DHT22;34865;51.046;3.732;2022-09-13T14:01:32;22.40;99.90
23073;DHT22;34865;51.046;3.732;2022-09-13T14:07:02;22.50;99.90
23073;DHT22;34865;51.046;3.732;2022-09-13T14:09:38;22.60;99.90
23073;DHT22;34865;51.046;3.732;2022-09-13T14:15:07;22.70;99.90
23073;DHT22;34865;51.046;3.732;2022-09-13T14:20:20;22.90;99.90
23073;DHT22;34865;51.046;3.732;2022-09-13T14:22:46;23.00;99.90
23073;DHT22;34865;51.046;3.732;2022-09-13T14:27:45;23.10;99.90
23073;DHT22;34865;51.046;3.732;2022-09-13T14:30:20;23.00;99.90
23073;DHT22;34865;51.046;3.732;2022-09-13T14:32:49;23.00;99.90
23073;DHT22;34865;51.046;3.732;2022-09-13T14:35:30;23.00;99.90
23073;DHT22;34865;51.046;3.732;2022-09-13T14:38:17;23.10;99.90
23073;DHT22;34865;51.046;3.732;2022-09-13T14:40:49;23.10;99.90
23073;DHT22;34865;51.046;3.732;2022-09-13T14:43:18;23.20;99.90
23073;DHT22;34865;51.046;3.732;2022-09-13T14:45:46;23.20;99.90
23073;DHT22;34865;51.046;3.732;2022-09-13T14:48:24;23.20;99.90
23073;DHT22;34865;51.046;3.732;2022-09-13T14:50:58;23.10;99.90
23073;DHT22;34865;51.046;3.732;2022-09-13T14:53:28;23.20;99.90
23073;DHT22;34865;51.046;3.732;2022-09-13T14:56:00;23.20;99.90
23073;DHT22;34865;51.046;3.732;2022-09-13T14:58:48;23.20;99.90
23073;DHT22;34865;51.046;3.732;2022-09-13T15:01:18;23.20;99.90
23073;DHT22;34865;51.046;3.732;2022-09-13T15:03:46;23.30;99.90
23073;DHT22;34865;51.046;3.732;2022-09-13T15:06:24;23.30;99.90
23073;DHT22;34865;51.046;3.732;2022-09-13T15:08:51;23.40;99.90
23073;DHT22;34865;51.046;3.732;2022-09-13T15:14:30;23.20;99.90
23073;DHT22;34865;51.046;3.732;2022-09-13T15:17:10;23.00;99.90
23073;DHT22;34865;51.046;3.732;2022-09-13T15:19:37;22.90;99.90
23073;DHT22;34865;51.046;3.732;2022-09-13T15:22:22;22.90;99.90
23073;DHT22;34865;51.046;3.732;2022-09-13T15:24:52;22.70;99.90
23073;DHT22;34865;51.046;3.732;2022-09-13T15:27:25;22.80;99.90
23073;DHT22;34865;51.046;3.732;2022-09-13T15:29:58;22.70;99.90
23073;DHT22;34865;51.046;3.732;2022-09-13T15:32:34;22.70;99.90
23073;DHT22;34865;51.046;3.732;2022-09-13T15:35:17;22.70;99.90
23073;DHT22;34865;51.046;3.732;2022-09-13T15:37:46;22.80;99.90
23073;DHT22;34865;51.046;3.732;2022-09-13T15:40:22;22.90;99.90
23073;DHT22;34865;51.046;3.732;2022-09-13T15:42:51;22.90;99.90
23073;DHT22;34865;51.046;3.732;2022-09-13T15:45:19;22.90;99.90
23073;DHT22;34865;51.046;3.732;2022-09-13T15:47:49;22.80;99.90
23073;DHT22;34865;51.046;3.732;2022-09-13T15:50:27;22.70;99.90
23073;DHT22;34865;51.046;3.732;2022-09-13T15:52:55;22.60;99.90
23073;DHT22;34865;51.046;3.732;2022-09-13T15:55:21;22.50;99.90
23073;DHT22;34865;51.046;3.732;2022-09-13T15:57:47;22.50;99.90
23073;DHT22;34865;51.046;3.732;2022-09-13T16:00:24;22.50;99.90
23073;DHT22;34865;51.046;3.732;2022-09-13T16:02:52;22.60;99.90
23073;DHT22;34865;51.046;3.732;2022-09-13T16:05:18;22.60;99.90
23073;DHT22;34865;51.046;3.732;2022-09-13T16:07:44;22.50;99.90
23073;DHT22;34865;51.046;3.732;2022-09-13T16:10:12;22.50;99.90
23073;DHT22;34865;51.046;3.732;2022-09-13T16:12:39;22.50;99.90
23073;DHT22;34865;51.046;3.732;2022-09-13T16:15:05;22.40;99.90
23073;DHT22;34865;51.046;3.732;2022-09-13T16:17:30;22.50;99.90
23073;DHT22;34865;51.046;3.732;2022-09-13T16:19:56;22.60;99.90
23073;DHT22;34865;51.046;3.732;2022-09-13T16:22:21;22.60;99.90
23073;DHT22;34865;51.046;3.732;2022-09-13T16:24:47;22.60;99.90
23073;DHT22;34865;51.046;3.732;2022-09-13T16:27:15;22.50;99.90
23073;DHT22;34865;51.046;3.732;2022-09-13T16:29:41;22.60;99.90
23073;DHT22;34865;51.046;3.732;2022-09-13T16:32:08;22.50;99.90
23073;DHT22;34865;51.046;3.732;2022-09-13T16:34:33;22.30;99.90
23073;DHT22;34865;51.046;3.732;2022-09-13T16:36:59;22.30;99.90
23073;DHT22;34865;51.046;3.732;2022-09-13T16:39:25;22.20;99.90
23073;DHT22;34865;51.046;3.732;2022-09-13T16:41:51;22.00;99.90
23073;DHT22;34865;51.046;3.732;2022-09-13T16:44:16;22.00;99.90
23073;DHT22;34865;51.046;3.732;2022-09-13T16:46:43;22.10;99.90
23073;DHT22;34865;51.046;3.732;2022-09-13T16:49:09;22.10;99.90
23073;DHT22;34865;51.046;3.732;2022-09-13T16:51:35;22.00;99.90
23073;DHT22;34865;51.046;3.732;2022-09-13T16:54:01;22.00;99.90
23073;DHT22;34865;51.046;3.732;2022-09-13T16:56:27;22.00;99.90
23073;DHT22;34865;51.046;3.732;2022-09-13T16:58:55;22.00;99.90
23073;DHT22;34865;51.046;3.732;2022-09-13T17:01:23;21.90;99.90
23073;DHT22;34865;51.046;3.732;2022-09-13T17:03:49;21.90;99.90
23073;DHT22;34865;51.046;3.732;2022-09-13T17:06:17;22.00;99.90
23073;DHT22;34865;51.046;3.732;2022-09-13T17:08:52;22.00;99.90
23073;DHT22;34865;51.046;3.732;2022-09-13T17:11:21;22.00;99.90
23073;DHT22;34865;51.046;3.732;2022-09-13T17:13:46;21.90;99.90
23073;DHT22;34865;51.046;3.732;2022-09-13T17:16:21;21.70;99.90
23073;DHT22;34865;51.046;3.732;2022-09-13T17:18:47;21.60;99.90
23073;DHT22;34865;51.046;3.732;2022-09-13T17:21:12;21.60;99.90
23073;DHT22;34865;51.046;3.732;2022-09-13T17:23:38;21.50;99.90
23073;DHT22;34865;51.046;3.732;2022-09-13T17:26:03;21.40;99.90
23073;DHT22;34865;51.046;3.732;2022-09-13T17:28:30;21.40;99.90
23073;DHT22;34865;51.046;3.732;2022-09-13T17:30:55;21.30;99.90
23073;DHT22;34865;51.046;3.732;2022-09-13T17:33:21;21.30;99.90
23073;DHT22;34865;51.046;3.732;2022-09-13T17:35:57;21.10;99.90
23073;DHT22;34865;51.046;3.732;2022-09-13T17:38:23;21.10;99.90
23073;DHT22;34865;51.046;3.732;2022-09-13T17:41:01;21.00;99.90
23073;DHT22;34865;51.046;3.732;2022-09-13T17:43:27;20.80;99.90
23073;DHT22;34865;51.046;3.732;2022-09-13T17:45:53;20.70;99.90
23073;DHT22;34865;51.046;3.732;2022-09-13T17:48:19;20.60;99.90
23073;DHT22;34865;51.046;3.732;2022-09-13T17:50:44;20.60;99.90
23073;DHT22;34865;51.046;3.732;2022-09-13T17:53:10;20.60;99.90
23073;DHT22;34865;51.046;3.732;2022-09-13T17:55:48;20.60;99.90
23073;DHT22;34865;51.046;3.732;2022-09-13T17:58:14;20.50;99.90
23073;DHT22;34865;51.046;3.732;2022-09-13T18:00:39;20.60;99.90
23073;DHT22;34865;51.046;3.732;2022-09-13T18:03:05;20.50;99.90
23073;DHT22;34865;51.046;3.732;2022-09-13T18:05:30;20.40;99.90
23073;DHT22;34865;51.046;3.732;2022-09-13T18:07:56;20.40;99.90
23073;DHT22;34865;51.046;3.732;2022-09-13T18:10:22;20.40;99.90
23073;DHT22;34865;51.046;3.732;2022-09-13T18:12:47;20.40;99.90
23073;DHT22;34865;51.046;3.732;2022-09-13T18:15:13;20.40;99.90
23073;DHT22;34865;51.046;3.732;2022-09-13T18:17:39;20.40;99.90
23073;DHT22;34865;51.046;3.732;2022-09-13T18:20:04;20.50;99.90
23073;DHT22;34865;51.046;3.732;2022-09-13T18:22:30;20.50;99.90
23073;DHT22;34865;51.046;3.732;2022-09-13T18:24:56;20.50;99.90
23073;DHT22;34865;51.046;3.732;2022-09-13T18:27:21;20.30;99.90
23073;DHT22;34865;51.046;3.732;2022-09-13T18:29:47;20.30;99.90
23073;DHT22;34865;51.046;3.732;2022-09-13T18:32:12;20.30;99.90
23073;DHT22;34865;51.046;3.732;2022-09-13T18:34:38;20.20;99.90